Eagle — WBP2187 — position and weather

sailwx.info

Track history (hours):
 
Tides and Currents Weather Stations Pressure Air Temp Water Temp Dewpoint Dewpoint Depression Visibility Wind Speed Wind Dir Waves Ship Positions

Eagle

Owner: Harley Marine Services, INC, SEATTLE, WA. More information available from US FCC via Universal Licensing System and Coast Guard Vessel Documentation Center.

Last reported at 2018-May-24 20:57 UTC. Time now 2018-May-24 21:08 UTC.
Position N 49°18' W 122°58'.

Length 32 m; draft 4 m.

Type: Towing. MMSI: 366978690.

Date/timePositionNaut miles runAvg speedWind from/ knotsBaromVisibWave heightAir tempDewpointWater temp
2018-May-24 20:57N 49°18' W 122°58'0 0.1
2018-May-24 20:27N 49°18' W 122°58'0 0.1
2018-May-24 19:51N 49°18' W 122°58'0 0.0
2018-May-24 19:21N 49°18' W 122°58'0 0.1
2018-May-24 18:48N 49°18' W 122°58'0 0.1
2018-May-24 18:30N 49°18' W 122°58'0 0.0
2018-May-24 18:00N 49°18' W 122°58'0 0.0
2018-May-24 17:27N 49°18' W 122°58'0 0.0
2018-May-24 17:00N 49°18' W 122°58'0 0.0
2018-May-24 16:27N 49°18' W 122°58'0 0.0
2018-May-24 15:57N 49°18' W 122°58'0 0.0
2018-May-24 15:27N 49°18' W 122°58'0 0.0
2018-May-24 14:45N 49°18' W 122°58'0 0.0
2018-May-24 14:27N 49°18' W 122°58'0 0.0
2018-May-24 14:00N 49°18' W 122°58'1 0.3
2018-May-24 08:58N 49°18' W 123°00'0 0.0
2018-May-24 08:22N 49°18' W 123°00'0 0.0
2018-May-24 07:43N 49°18' W 123°00'0 0.0
2018-May-24 07:25N 49°18' W 123°00'0 0.0
2018-May-24 06:55N 49°18' W 123°00'0 0.0
2018-May-24 06:28N 49°18' W 123°00'0 0.0
2018-May-24 05:58N 49°18' W 123°00'0 0.0
2018-May-24 05:28N 49°18' W 123°00'0 0.0
2018-May-24 04:58N 49°18' W 123°00'0 0.0
2018-May-24 04:28N 49°18' W 123°00'0 0.0
2018-May-24 03:46N 49°18' W 123°00'0 0.0
2018-May-24 03:28N 49°18' W 123°00'0 0.0
2018-May-24 02:52N 49°18' W 123°00'0 0.0
2018-May-24 02:28N 49°18' W 123°00'0 0.0
2018-May-24 01:58N 49°18' W 123°00'0 0.0
2018-May-24 01:25N 49°18' W 123°00'0 0.0
2018-May-24 00:58N 49°18' W 123°00'0 0.0
2018-May-24 00:19N 49°18' W 123°00'0 0.0
2018-May-23 23:49N 49°18' W 123°00'0 0.0
2018-May-23 23:28N 49°18' W 123°00'0 0.0
2018-May-23 22:58N 49°18' W 123°00'0 0.0
2018-May-23 22:25N 49°18' W 123°00'0 0.0
2018-May-23 21:55N 49°18' W 123°00'0 0.0
2018-May-23 21:25N 49°18' W 123°00'0 0.0
2018-May-23 20:55N 49°18' W 123°00'0 0.0
2018-May-23 20:19N 49°18' W 123°00'0 0.0
2018-May-23 19:58N 49°18' W 123°00'0 0.0
2018-May-23 19:22N 49°18' W 123°00'0 0.0
2018-May-23 18:49N 49°18' W 123°00'0 0.0
2018-May-23 18:22N 49°18' W 123°00'0 0.0
2018-May-23 17:55N 49°18' W 123°00'0 0.0
2018-May-23 17:19N 49°18' W 123°00'0 0.0
2018-May-23 16:49N 49°18' W 123°00'0 0.0
2018-May-23 16:30N 49°18' W 123°00'0 0.3
2018-May-23 16:00N 49°18' W 123°00'3 5.3
2018-May-23 15:29N 49°18' W 123°05'1 2.6
2018-May-23 15:00N 49°18' W 123°06'3 5.7
2018-May-23 14:30N 49°19' W 123°11'3 5.2
2018-May-23 13:58N 49°18' W 123°15'3 6.4
2018-May-23 13:28N 49°16' W 123°19'41 5.6
2018-May-23 06:09N 48°42' W 122°43'1 7.8
2018-May-23 06:00N 48°41' W 122°43'3 6.8
2018-May-23 05:30N 48°38' W 122°44'4 8.0
2018-May-23 05:00N 48°34' W 122°45'5 9.1
2018-May-23 04:30N 48°30' W 122°44'35 7.7
2018-May-22 23:57N 47°56' W 122°30'4 8.8
2018-May-22 23:30N 47°52' W 122°28'4 8.5
2018-May-22 23:00N 47°48' W 122°27'4 8.5
2018-May-22 22:30N 47°44' W 122°26'4 8.4
2018-May-22 22:00N 47°40' W 122°27'4 7.9
2018-May-22 21:30N 47°37' W 122°23'2 3.5
2018-May-22 21:00N 47°36' W 122°21'0 0.2
2018-May-22 19:08N 47°35' W 122°21'0 0.0
2018-May-22 19:00N 47°35' W 122°21'0 0.1
2018-May-22 18:29N 47°35' W 122°21'1 1.9
2018-May-22 17:55N 47°34' W 122°21'0 0.0
2018-May-22 17:30N 47°34' W 122°21'0 0.0
2018-May-22 16:59N 47°34' W 122°21'0 0.0
2018-May-22 16:18N 47°34' W 122°21'0 0.0
2018-May-22 15:22N 47°34' W 122°21'0 0.0
2018-May-22 14:38N 47°34' W 122°21'0 0.2
2018-May-22 14:17N 47°34' W 122°21'1 2.8
2018-May-22 13:55N 47°35' W 122°21'0 0.3
2018-May-22 13:30N 47°36' W 122°21'0 0.2
2018-May-22 12:53N 47°35' W 122°21'0 0.0
2018-May-22 12:30N 47°35' W 122°21'1 1.0
2018-May-22 11:59N 47°36' W 122°21'2 3.3
2018-May-22 11:30N 47°36' W 122°24'2 4.3
2018-May-22 11:00N 47°35' W 122°26'2 4.6
2018-May-22 10:30N 47°33' W 122°28'2 4.6
2018-May-22 10:00N 47°31' W 122°29'2 4.6
2018-May-22 09:30N 47°29' W 122°31'2 4.3
2018-May-22 09:00N 47°27' W 122°31'3 5.4
2018-May-22 08:30N 47°24' W 122°32'3 5.4
2018-May-22 07:59N 47°21' W 122°32'2 4.9
2018-May-22 07:30N 47°19' W 122°30'3 5.3
2018-May-22 07:00N 47°17' W 122°28'2 3.3
2018-May-22 06:30N 47°16' W 122°25'1 0.1
2018-May-22 02:19N 47°17' W 122°25'1 1.6
2018-May-22 02:00N 47°16' W 122°25'0 0.1
2018-May-22 01:29N 47°16' W 122°25'0 0.1
2018-May-22 00:55N 47°16' W 122°25'1 1.4
2018-May-22 00:29N 47°17' W 122°25'2 0.2
2018-May-21 12:12N 47°16' W 122°23'0 0.1
2018-May-21 11:49N 47°16' W 122°23'1 4.0
2018-May-21 11:27N 47°17' W 122°25'0 0.2
2018-May-21 10:58N 47°17' W 122°25'0 0.0
2018-May-21 05:45N 47°17' W 122°25'0 0.3
2018-May-21 05:29N 47°17' W 122°25'0 0.2
2018-May-21 04:59N 47°17' W 122°25'1 0.1
2018-May-20 20:17N 47°17' W 122°25'1 2.5
2018-May-20 19:58N 47°16' W 122°24'1 0.2
2018-May-20 13:33N 47°16' W 122°23'0 0.1
2018-May-20 13:30N 47°16' W 122°23'0 0.0
2018-May-20 02:10N 47°16' W 122°23'0 0.0
2018-May-20 01:53N 47°16' W 122°23'0 0.0
2018-May-19 18:07N 47°16' W 122°23'0 0.0
2018-May-19 17:41N 47°16' W 122°23'0 0.0
2018-May-19 16:37N 47°16' W 122°23'0 0.0
2018-May-19 16:24N 47°16' W 122°23'0 0.0
2018-May-19 14:06N 47°16' W 122°23'0 0.0
2018-May-19 13:59N 47°16' W 122°23'0 0.0
2018-May-19 13:12N 47°16' W 122°23'0 0.0
2018-May-19 13:00N 47°16' W 122°23'0 0.0
2018-May-19 12:09N 47°16' W 122°23'0 0.0
2018-May-19 12:00N 47°16' W 122°23'0 0.0
2018-May-19 02:57N 47°16' W 122°23'2 0.1
2018-May-18 11:03N 47°17' W 122°25'0 0.1
2018-May-18 11:00N 47°17' W 122°25'2 3.1
2018-May-18 10:30N 47°18' W 122°27'2 4.2
2018-May-18 10:00N 47°20' W 122°27'3 5.4
2018-May-18 09:30N 47°22' W 122°24'3 5.1
2018-May-18 09:00N 47°24' W 122°23'3 6.3
2018-May-18 08:30N 47°27' W 122°25'3 6.0
2018-May-18 08:00N 47°30' W 122°26'3 6.7
2018-May-18 07:30N 47°33' W 122°27'3 6.3
2018-May-18 07:00N 47°36' W 122°24'2 4.3
2018-May-18 06:28N 47°36' W 122°21'0 0.6
2018-May-18 06:00N 47°36' W 122°21'0 0.0
2018-May-18 04:49N 47°36' W 122°21'0 0.0
2018-May-18 04:25N 47°36' W 122°21'0 0.0
2018-May-18 03:58N 47°36' W 122°21'0 0.0
2018-May-18 03:29N 47°36' W 122°21'0 0.0
2018-May-18 01:50N 47°36' W 122°21'0 0.0
2018-May-18 01:25N 47°36' W 122°21'0 0.0
2018-May-18 01:00N 47°36' W 122°21'0 0.0
2018-May-17 22:55N 47°36' W 122°21'0 0.0
2018-May-17 22:30N 47°36' W 122°21'0 0.0
2018-May-17 21:47N 47°36' W 122°21'0 0.0
2018-May-17 21:30N 47°36' W 122°21'0 0.8
2018-May-17 21:00N 47°36' W 122°21'2 3.5
2018-May-17 20:30N 47°37' W 122°23'2 4.7
2018-May-17 20:00N 47°38' W 122°26'2 4.1
2018-May-17 19:30N 47°39' W 122°28'2 3.9
2018-May-17 19:00N 47°41' W 122°28'2 4.1
2018-May-17 18:30N 47°43' W 122°27'2 4.1
2018-May-17 18:00N 47°45' W 122°27'2 3.5
2018-May-17 17:30N 47°47' W 122°27'2 3.5
2018-May-17 17:00N 47°49' W 122°28'2 3.4
2018-May-17 16:30N 47°50' W 122°28'2 3.6
2018-May-17 16:00N 47°52' W 122°29'2 4.0
2018-May-17 15:30N 47°54' W 122°30'32 5.5
2018-May-17 09:38N 48°25' W 122°45'3 6.8
2018-May-17 09:10N 48°28' W 122°45'2 7.0
2018-May-17 08:55N 48°30' W 122°44'3 7.5
2018-May-17 08:30N 48°33' W 122°45'4 7.6
2018-May-17 08:00N 48°36' W 122°45'47 5.3
2018-May-16 23:13N 49°19' W 123°14'1 6.4
2018-May-16 22:59N 49°19' W 123°12'2 4.6
2018-May-16 22:30N 49°19' W 123°08'2 3.3
2018-May-16 22:00N 49°18' W 123°06'2 4.2
2018-May-16 21:27N 49°18' W 123°03'1 1.3
2018-May-16 20:59N 49°18' W 123°02'1 2.1
2018-May-16 20:28N 49°18' W 123°00'0 0.1
2018-May-16 20:00N 49°18' W 123°00'0 0.0
2018-May-16 19:30N 49°18' W 123°00'0 0.0
2018-May-16 18:59N 49°18' W 123°00'0 0.0
2018-May-16 18:30N 49°18' W 123°00'0 0.0
2018-May-16 18:00N 49°18' W 123°00'0 0.0
2018-May-16 17:30N 49°18' W 123°00'0 0.0
2018-May-16 17:00N 49°18' W 123°00'0 0.0
2018-May-16 16:30N 49°18' W 123°00'0 0.0
2018-May-16 15:55N 49°18' W 123°00'0 0.0
2018-May-16 15:30N 49°18' W 123°00'0 0.0
2018-May-16 15:00N 49°18' W 123°00'0 0.0
2018-May-16 14:30N 49°18' W 123°00'0 0.0
2018-May-16 14:00N 49°18' W 123°00'0 0.0
2018-May-16 13:30N 49°18' W 123°00'0 0.0
2018-May-16 13:00N 49°18' W 123°00'0 0.0
2018-May-16 12:29N 49°18' W 123°00'0 0.0
2018-May-16 12:00N 49°18' W 123°00'0 0.0
2018-May-16 11:29N 49°18' W 123°00'0 0.0
2018-May-16 11:00N 49°18' W 123°00'0 0.0
2018-May-16 10:30N 49°18' W 123°00'0 0.0
2018-May-16 09:59N 49°18' W 123°00'0 0.0
2018-May-16 09:30N 49°18' W 123°00'0 0.0
2018-May-16 09:00N 49°18' W 123°00'0 0.0
2018-May-16 08:30N 49°18' W 123°00'0 0.0
2018-May-16 08:00N 49°18' W 123°00'0 0.0
2018-May-16 07:30N 49°18' W 123°00'0 0.0
2018-May-16 06:59N 49°18' W 123°00'0 0.0
2018-May-16 06:30N 49°18' W 123°00'0 0.0
2018-May-16 06:00N 49°18' W 123°00'0 0.0
2018-May-16 05:29N 49°18' W 123°00'0 0.0
2018-May-16 05:00N 49°18' W 123°00'0 0.0
2018-May-16 04:29N 49°18' W 123°00'0 0.0
2018-May-16 04:00N 49°18' W 123°00'0 0.0
2018-May-16 03:30N 49°18' W 123°00'0 0.0
2018-May-16 03:00N 49°18' W 123°00'0 0.0
2018-May-16 02:30N 49°18' W 123°00'0 0.0
2018-May-16 02:00N 49°18' W 123°00'0 0.0
2018-May-16 01:29N 49°18' W 123°00'0 0.0
2018-May-16 01:00N 49°18' W 123°00'0 0.0
2018-May-16 00:21N 49°18' W 123°00'0 0.0
2018-May-16 00:00N 49°18' W 123°00'0 0.0
2018-May-15 23:30N 49°18' W 123°00'0 0.0
2018-May-15 23:00N 49°18' W 123°00'0 0.0
2018-May-15 22:30N 49°18' W 123°00'0 0.0
2018-May-15 21:59N 49°18' W 123°00'0 0.0
2018-May-15 21:28N 49°18' W 123°00'0 0.0
2018-May-15 21:00N 49°18' W 123°00'0 0.0
2018-May-15 20:27N 49°18' W 123°00'0 0.0
2018-May-15 19:59N 49°18' W 123°00'0 0.0
2018-May-15 19:30N 49°18' W 123°00'0 0.0
2018-May-15 19:00N 49°18' W 123°00'0 0.0
2018-May-15 18:30N 49°18' W 123°00'0 0.0
2018-May-15 18:00N 49°18' W 123°00'0 0.0
2018-May-15 17:30N 49°18' W 123°00'0 0.0
2018-May-15 17:00N 49°18' W 123°00'0 0.0
2018-May-15 16:30N 49°18' W 123°00'0 0.0
2018-May-15 16:00N 49°18' W 123°00'0 0.0
2018-May-15 15:30N 49°18' W 123°00'0 0.0
2018-May-15 15:00N 49°18' W 123°00'0 0.0
2018-May-15 14:29N 49°18' W 123°00'0 0.2
2018-May-15 14:00N 49°18' W 123°00'0 0.1
2018-May-15 13:30N 49°18' W 123°00'1 1.6
2018-May-15 13:00N 49°18' W 123°01'2 4.3
2018-May-15 12:30N 49°18' W 123°05'3 5.1
2018-May-15 11:59N 49°19' W 123°08'3 5.3
2018-May-15 11:30N 49°19' W 123°12'2 4.7
2018-May-15 11:00N 49°18' W 123°16'2 4.3
2018-May-15 10:30N 49°17' W 123°18'3 4.3
2018-May-15 09:55N 49°14' W 123°19'41 4.7
2018-May-15 01:15N 48°41' W 122°43'2 7.6
2018-May-15 00:59N 48°39' W 122°43'4 8.6
2018-May-15 00:30N 48°35' W 122°45'  
Track history (hours):
 
Tides and Currents Weather Stations Pressure Air Temp Water Temp Dewpoint Dewpoint Depression Visibility Wind Speed Wind Dir Waves Ship Positions

Eagle

Owner: Harley Marine Services, INC, SEATTLE, WA. More information available from US FCC via Universal Licensing System and Coast Guard Vessel Documentation Center.

Last reported at 2018-May-24 20:57 UTC. Time now 2018-May-24 21:08 UTC.
Position N 49°18' W 122°58'.

Length 32 m; draft 4 m.

Type: Towing. MMSI: 366978690.

Date/timePositionNaut miles runAvg speedWind from/ knotsBaromVisibWave heightAir tempDewpointWater temp
2018-May-24 20:57N 49°18' W 122°58'0 0.1
2018-May-24 20:27N 49°18' W 122°58'0 0.1
2018-May-24 19:51N 49°18' W 122°58'0 0.0
2018-May-24 19:21N 49°18' W 122°58'0 0.1
2018-May-24 18:48N 49°18' W 122°58'0 0.1
2018-May-24 18:30N 49°18' W 122°58'0 0.0
2018-May-24 18:00N 49°18' W 122°58'0 0.0
2018-May-24 17:27N 49°18' W 122°58'0 0.0
2018-May-24 17:00N 49°18' W 122°58'0 0.0
2018-May-24 16:27N 49°18' W 122°58'0 0.0
2018-May-24 15:57N 49°18' W 122°58'0 0.0
2018-May-24 15:27N 49°18' W 122°58'0 0.0
2018-May-24 14:45N 49°18' W 122°58'0 0.0
2018-May-24 14:27N 49°18' W 122°58'0 0.0
2018-May-24 14:00N 49°18' W 122°58'1 0.3
2018-May-24 08:58N 49°18' W 123°00'0 0.0
2018-May-24 08:22N 49°18' W 123°00'0 0.0
2018-May-24 07:43N 49°18' W 123°00'0 0.0
2018-May-24 07:25N 49°18' W 123°00'0 0.0
2018-May-24 06:55N 49°18' W 123°00'0 0.0
2018-May-24 06:28N 49°18' W 123°00'0 0.0
2018-May-24 05:58N 49°18' W 123°00'0 0.0
2018-May-24 05:28N 49°18' W 123°00'0 0.0
2018-May-24 04:58N 49°18' W 123°00'0 0.0
2018-May-24 04:28N 49°18' W 123°00'0 0.0
2018-May-24 03:46N 49°18' W 123°00'0 0.0
2018-May-24 03:28N 49°18' W 123°00'0 0.0
2018-May-24 02:52N 49°18' W 123°00'0 0.0
2018-May-24 02:28N 49°18' W 123°00'0 0.0
2018-May-24 01:58N 49°18' W 123°00'0 0.0
2018-May-24 01:25N 49°18' W 123°00'0 0.0
2018-May-24 00:58N 49°18' W 123°00'0 0.0
2018-May-24 00:19N 49°18' W 123°00'0 0.0
2018-May-23 23:49N 49°18' W 123°00'0 0.0
2018-May-23 23:28N 49°18' W 123°00'0 0.0
2018-May-23 22:58N 49°18' W 123°00'0 0.0
2018-May-23 22:25N 49°18' W 123°00'0 0.0
2018-May-23 21:55N 49°18' W 123°00'0 0.0
2018-May-23 21:25N 49°18' W 123°00'0 0.0
2018-May-23 20:55N 49°18' W 123°00'0 0.0
2018-May-23 20:19N 49°18' W 123°00'0 0.0
2018-May-23 19:58N 49°18' W 123°00'0 0.0
2018-May-23 19:22N 49°18' W 123°00'0 0.0
2018-May-23 18:49N 49°18' W 123°00'0 0.0
2018-May-23 18:22N 49°18' W 123°00'0 0.0
2018-May-23 17:55N 49°18' W 123°00'0 0.0
2018-May-23 17:19N 49°18' W 123°00'0 0.0
2018-May-23 16:49N 49°18' W 123°00'0 0.0
2018-May-23 16:30N 49°18' W 123°00'0 0.3
2018-May-23 16:00N 49°18' W 123°00'3 5.3
2018-May-23 15:29N 49°18' W 123°05'1 2.6
2018-May-23 15:00N 49°18' W 123°06'3 5.7
2018-May-23 14:30N 49°19' W 123°11'3 5.2
2018-May-23 13:58N 49°18' W 123°15'3 6.4
2018-May-23 13:28N 49°16' W 123°19'41 5.6
2018-May-23 06:09N 48°42' W 122°43'1 7.8
2018-May-23 06:00N 48°41' W 122°43'3 6.8
2018-May-23 05:30N 48°38' W 122°44'4 8.0
2018-May-23 05:00N 48°34' W 122°45'5 9.1
2018-May-23 04:30N 48°30' W 122°44'35 7.7
2018-May-22 23:57N 47°56' W 122°30'4 8.8
2018-May-22 23:30N 47°52' W 122°28'4 8.5
2018-May-22 23:00N 47°48' W 122°27'4 8.5
2018-May-22 22:30N 47°44' W 122°26'4 8.4
2018-May-22 22:00N 47°40' W 122°27'4 7.9
2018-May-22 21:30N 47°37' W 122°23'2 3.5
2018-May-22 21:00N 47°36' W 122°21'0 0.2
2018-May-22 19:08N 47°35' W 122°21'0 0.0
2018-May-22 19:00N 47°35' W 122°21'0 0.1
2018-May-22 18:29N 47°35' W 122°21'1 1.9
2018-May-22 17:55N 47°34' W 122°21'0 0.0
2018-May-22 17:30N 47°34' W 122°21'0 0.0
2018-May-22 16:59N 47°34' W 122°21'0 0.0
2018-May-22 16:18N 47°34' W 122°21'0 0.0
2018-May-22 15:22N 47°34' W 122°21'0 0.0
2018-May-22 14:38N 47°34' W 122°21'0 0.2
2018-May-22 14:17N 47°34' W 122°21'1 2.8
2018-May-22 13:55N 47°35' W 122°21'0 0.3
2018-May-22 13:30N 47°36' W 122°21'0 0.2
2018-May-22 12:53N 47°35' W 122°21'0 0.0
2018-May-22 12:30N 47°35' W 122°21'1 1.0
2018-May-22 11:59N 47°36' W 122°21'2 3.3
2018-May-22 11:30N 47°36' W 122°24'2 4.3
2018-May-22 11:00N 47°35' W 122°26'2 4.6
2018-May-22 10:30N 47°33' W 122°28'2 4.6
2018-May-22 10:00N 47°31' W 122°29'2 4.6
2018-May-22 09:30N 47°29' W 122°31'2 4.3
2018-May-22 09:00N 47°27' W 122°31'3 5.4
2018-May-22 08:30N 47°24' W 122°32'3 5.4
2018-May-22 07:59N 47°21' W 122°32'2 4.9
2018-May-22 07:30N 47°19' W 122°30'3 5.3
2018-May-22 07:00N 47°17' W 122°28'2 3.3
2018-May-22 06:30N 47°16' W 122°25'1 0.1
2018-May-22 02:19N 47°17' W 122°25'1 1.6
2018-May-22 02:00N 47°16' W 122°25'0 0.1
2018-May-22 01:29N 47°16' W 122°25'0 0.1
2018-May-22 00:55N 47°16' W 122°25'1 1.4
2018-May-22 00:29N 47°17' W 122°25'2 0.2
2018-May-21 12:12N 47°16' W 122°23'0 0.1
2018-May-21 11:49N 47°16' W 122°23'1 4.0
2018-May-21 11:27N 47°17' W 122°25'0 0.2
2018-May-21 10:58N 47°17' W 122°25'0 0.0
2018-May-21 05:45N 47°17' W 122°25'0 0.3
2018-May-21 05:29N 47°17' W 122°25'0 0.2
2018-May-21 04:59N 47°17' W 122°25'1 0.1
2018-May-20 20:17N 47°17' W 122°25'1 2.5
2018-May-20 19:58N 47°16' W 122°24'1 0.2
2018-May-20 13:33N 47°16' W 122°23'0 0.1
2018-May-20 13:30N 47°16' W 122°23'0 0.0
2018-May-20 02:10N 47°16' W 122°23'0 0.0
2018-May-20 01:53N 47°16' W 122°23'0 0.0
2018-May-19 18:07N 47°16' W 122°23'0 0.0
2018-May-19 17:41N 47°16' W 122°23'0 0.0
2018-May-19 16:37N 47°16' W 122°23'0 0.0
2018-May-19 16:24N 47°16' W 122°23'0 0.0
2018-May-19 14:06N 47°16' W 122°23'0 0.0
2018-May-19 13:59N 47°16' W 122°23'0 0.0
2018-May-19 13:12N 47°16' W 122°23'0 0.0
2018-May-19 13:00N 47°16' W 122°23'0 0.0
2018-May-19 12:09N 47°16' W 122°23'0 0.0
2018-May-19 12:00N 47°16' W 122°23'0 0.0
2018-May-19 02:57N 47°16' W 122°23'2 0.1
2018-May-18 11:03N 47°17' W 122°25'0 0.1
2018-May-18 11:00N 47°17' W 122°25'2 3.1
2018-May-18 10:30N 47°18' W 122°27'2 4.2
2018-May-18 10:00N 47°20' W 122°27'3 5.4
2018-May-18 09:30N 47°22' W 122°24'3 5.1
2018-May-18 09:00N 47°24' W 122°23'3 6.3
2018-May-18 08:30N 47°27' W 122°25'3 6.0
2018-May-18 08:00N 47°30' W 122°26'3 6.7
2018-May-18 07:30N 47°33' W 122°27'3 6.3
2018-May-18 07:00N 47°36' W 122°24'2 4.3
2018-May-18 06:28N 47°36' W 122°21'0 0.6
2018-May-18 06:00N 47°36' W 122°21'0 0.0
2018-May-18 04:49N 47°36' W 122°21'0 0.0
2018-May-18 04:25N 47°36' W 122°21'0 0.0
2018-May-18 03:58N 47°36' W 122°21'0 0.0
2018-May-18 03:29N 47°36' W 122°21'0 0.0
2018-May-18 01:50N 47°36' W 122°21'0 0.0
2018-May-18 01:25N 47°36' W 122°21'0 0.0
2018-May-18 01:00N 47°36' W 122°21'0 0.0
2018-May-17 22:55N 47°36' W 122°21'0 0.0
2018-May-17 22:30N 47°36' W 122°21'0 0.0
2018-May-17 21:47N 47°36' W 122°21'0 0.0
2018-May-17 21:30N 47°36' W 122°21'0 0.8
2018-May-17 21:00N 47°36' W 122°21'2 3.5
2018-May-17 20:30N 47°37' W 122°23'2 4.7
2018-May-17 20:00N 47°38' W 122°26'2 4.1
2018-May-17 19:30N 47°39' W 122°28'2 3.9
2018-May-17 19:00N 47°41' W 122°28'2 4.1
2018-May-17 18:30N 47°43' W 122°27'2 4.1
2018-May-17 18:00N 47°45' W 122°27'2 3.5
2018-May-17 17:30N 47°47' W 122°27'2 3.5
2018-May-17 17:00N 47°49' W 122°28'2 3.4
2018-May-17 16:30N 47°50' W 122°28'2 3.6
2018-May-17 16:00N 47°52' W 122°29'2 4.0
2018-May-17 15:30N 47°54' W 122°30'32 5.5
2018-May-17 09:38N 48°25' W 122°45'3 6.8
2018-May-17 09:10N 48°28' W 122°45'2 7.0
2018-May-17 08:55N 48°30' W 122°44'3 7.5
2018-May-17 08:30N 48°33' W 122°45'4 7.6
2018-May-17 08:00N 48°36' W 122°45'47 5.3
2018-May-16 23:13N 49°19' W 123°14'1 6.4
2018-May-16 22:59N 49°19' W 123°12'2 4.6
2018-May-16 22:30N 49°19' W 123°08'2 3.3
2018-May-16 22:00N 49°18' W 123°06'2 4.2
2018-May-16 21:27N 49°18' W 123°03'1 1.3
2018-May-16 20:59N 49°18' W 123°02'1 2.1
2018-May-16 20:28N 49°18' W 123°00'0 0.1
2018-May-16 20:00N 49°18' W 123°00'0 0.0
2018-May-16 19:30N 49°18' W 123°00'0 0.0
2018-May-16 18:59N 49°18' W 123°00'0 0.0
2018-May-16 18:30N 49°18' W 123°00'0 0.0
2018-May-16 18:00N 49°18' W 123°00'0 0.0
2018-May-16 17:30N 49°18' W 123°00'0 0.0
2018-May-16 17:00N 49°18' W 123°00'0 0.0
2018-May-16 16:30N 49°18' W 123°00'0 0.0
2018-May-16 15:55N 49°18' W 123°00'0 0.0
2018-May-16 15:30N 49°18' W 123°00'0 0.0
2018-May-16 15:00N 49°18' W 123°00'0 0.0
2018-May-16 14:30N 49°18' W 123°00'0 0.0
2018-May-16 14:00N 49°18' W 123°00'0 0.0
2018-May-16 13:30N 49°18' W 123°00'0 0.0
2018-May-16 13:00N 49°18' W 123°00'0 0.0
2018-May-16 12:29N 49°18' W 123°00'0 0.0
2018-May-16 12:00N 49°18' W 123°00'0 0.0
2018-May-16 11:29N 49°18' W 123°00'0 0.0
2018-May-16 11:00N 49°18' W 123°00'0 0.0
2018-May-16 10:30N 49°18' W 123°00'0 0.0
2018-May-16 09:59N 49°18' W 123°00'0 0.0
2018-May-16 09:30N 49°18' W 123°00'0 0.0
2018-May-16 09:00N 49°18' W 123°00'0 0.0
2018-May-16 08:30N 49°18' W 123°00'0 0.0
2018-May-16 08:00N 49°18' W 123°00'0 0.0
2018-May-16 07:30N 49°18' W 123°00'0 0.0
2018-May-16 06:59N 49°18' W 123°00'0 0.0
2018-May-16 06:30N 49°18' W 123°00'0 0.0
2018-May-16 06:00N 49°18' W 123°00'0 0.0
2018-May-16 05:29N 49°18' W 123°00'0 0.0
2018-May-16 05:00N 49°18' W 123°00'0 0.0
2018-May-16 04:29N 49°18' W 123°00'0 0.0
2018-May-16 04:00N 49°18' W 123°00'0 0.0
2018-May-16 03:30N 49°18' W 123°00'0 0.0
2018-May-16 03:00N 49°18' W 123°00'0 0.0
2018-May-16 02:30N 49°18' W 123°00'0 0.0
2018-May-16 02:00N 49°18' W 123°00'0 0.0
2018-May-16 01:29N 49°18' W 123°00'0 0.0
2018-May-16 01:00N 49°18' W 123°00'0 0.0
2018-May-16 00:21N 49°18' W 123°00'0 0.0
2018-May-16 00:00N 49°18' W 123°00'0 0.0
2018-May-15 23:30N 49°18' W 123°00'0 0.0
2018-May-15 23:00N 49°18' W 123°00'0 0.0
2018-May-15 22:30N 49°18' W 123°00'0 0.0
2018-May-15 21:59N 49°18' W 123°00'0 0.0
2018-May-15 21:28N 49°18' W 123°00'0 0.0
2018-May-15 21:00N 49°18' W 123°00'0 0.0
2018-May-15 20:27N 49°18' W 123°00'0 0.0
2018-May-15 19:59N 49°18' W 123°00'0 0.0
2018-May-15 19:30N 49°18' W 123°00'0 0.0
2018-May-15 19:00N 49°18' W 123°00'0 0.0
2018-May-15 18:30N 49°18' W 123°00'0 0.0
2018-May-15 18:00N 49°18' W 123°00'0 0.0
2018-May-15 17:30N 49°18' W 123°00'0 0.0
2018-May-15 17:00N 49°18' W 123°00'0 0.0
2018-May-15 16:30N 49°18' W 123°00'0 0.0
2018-May-15 16:00N 49°18' W 123°00'0 0.0
2018-May-15 15:30N 49°18' W 123°00'0 0.0
2018-May-15 15:00N 49°18' W 123°00'0 0.0
2018-May-15 14:29N 49°18' W 123°00'0 0.2
2018-May-15 14:00N 49°18' W 123°00'0 0.1
2018-May-15 13:30N 49°18' W 123°00'1 1.6
2018-May-15 13:00N 49°18' W 123°01'2 4.3
2018-May-15 12:30N 49°18' W 123°05'3 5.1
2018-May-15 11:59N 49°19' W 123°08'3 5.3
2018-May-15 11:30N 49°19' W 123°12'2 4.7
2018-May-15 11:00N 49°18' W 123°16'2 4.3
2018-May-15 10:30N 49°17' W 123°18'3 4.3
2018-May-15 09:55N 49°14' W 123°19'41 4.7
2018-May-15 01:15N 48°41' W 122°43'2 7.6
2018-May-15 00:59N 48°39' W 122°43'4 8.6
2018-May-15 00:30N 48°35' W 122°45'  

Dump ship's entire track history